Time;durP1;ratioP1;P1;durP2;ratioP2;P2;SDS_P1;SDS_P2;PMS_P1;PMS_P2;Temp;Humidity;BMP_temperature;BMP_pressure;BME280_temperature;BME280_humidity;BME280_pressure;Samples;Min_cycle;Max_cycle;Signal;HPM_P1;HPM_P2
2023/03/11 00:02:24;;;;;;;11.10;10.00;;;0.60;99.90;;;;;;4988241;28;20180;-83
2023/03/11 00:04:49;;;;;;;11.73;10.07;;;0.60;99.90;;;;;;5004070;28;20204;-83
2023/03/11 00:07:16;;;;;;;11.93;10.73;;;0.60;99.90;;;;;;4988205;28;20188;-83
2023/03/11 00:09:42;;;;;;;12.40;11.07;;;0.60;99.90;;;;;;5006234;28;20191;-84
2023/03/11 00:12:07;;;;;;;13.60;12.20;;;0.60;99.90;;;;;;5004285;28;20200;-83
2023/03/11 00:14:33;;;;;;;11.70;10.63;;;0.60;99.90;;;;;;5003977;28;20223;-84
2023/03/11 00:16:59;;;;;;;11.83;10.73;;;0.50;99.90;;;;;;4987366;28;20177;-84
2023/03/11 00:19:25;;;;;;;12.00;10.80;;;0.50;99.90;;;;;;5003766;28;20243;-83
2023/03/11 00:21:51;;;;;;;17.63;13.10;;;0.60;99.90;;;;;;4986220;28;20638;-83
2023/03/11 00:24:17;;;;;;;12.17;10.97;;;0.60;99.90;;;;;;5003610;28;20200;-84
2023/03/11 00:26:43;;;;;;;12.37;10.97;;;0.60;99.90;;;;;;5002486;28;20188;-83
2023/03/11 00:29:09;;;;;;;11.60;10.60;;;0.60;99.90;;;;;;5004268;28;20182;-83
2023/03/11 00:31:34;;;;;;;11.90;10.70;;;0.60;99.90;;;;;;5002211;28;20347;-83
2023/03/11 00:34:00;;;;;;;11.83;10.53;;;0.50;99.90;;;;;;5003529;28;20188;-83
2023/03/11 00:36:32;;;;;;;11.67;10.57;;;0.60;99.90;;;;;;5000155;28;20196;-83
2023/03/11 00:39:00;;;;;;;11.57;10.37;;;0.50;99.90;;;;;;4999333;28;20180;-83
2023/03/11 00:41:26;;;;;;;11.80;10.57;;;0.50;99.90;;;;;;5001423;28;20188;-82
2023/03/11 00:43:52;;;;;;;12.90;11.20;;;0.60;99.90;;;;;;5000408;28;20347;-82
2023/03/11 00:46:18;;;;;;;10.83;9.73;;;0.50;99.90;;;;;;5002047;28;20240;-83
2023/03/11 00:48:44;;;;;;;11.13;10.10;;;0.50;99.90;;;;;;4986536;28;20181;-83
2023/03/11 00:51:14;;;;;;;11.33;10.33;;;0.50;99.90;;;;;;5005401;28;20200;-82
2023/03/11 00:53:41;;;;;;;13.27;10.30;;;0.50;99.90;;;;;;5002635;28;20603;-82
2023/03/11 00:56:14;;;;;;;10.93;9.83;;;0.50;99.90;;;;;;5003012;28;20200;-84
2023/03/11 00:58:42;;;;;;;12.53;10.03;;;0.50;99.90;;;;;;4986823;28;20242;-84
2023/03/11 01:01:13;;;;;;;11.43;10.23;;;0.50;99.90;;;;;;5003247;28;20567;-84
2023/03/11 01:03:40;;;;;;;12.03;10.40;;;0.50;99.90;;;;;;5003956;28;20172;-84
2023/03/11 01:06:06;;;;;;;10.83;9.73;;;0.50;99.90;;;;;;5004215;28;20259;-84
2023/03/11 01:08:32;;;;;;;11.40;10.30;;;0.50;99.90;;;;;;4989315;28;20184;-85
2023/03/11 01:10:58;;;;;;;12.80;11.53;;;0.50;99.90;;;;;;5005925;28;20204;-85
2023/03/11 01:13:25;;;;;;;13.17;10.10;;;0.50;99.90;;;;;;5005012;28;20176;-85
2023/03/11 01:15:51;;;;;;;12.03;10.77;;;0.50;99.90;;;;;;5005122;28;20288;-85
2023/03/11 01:18:17;;;;;;;11.30;10.17;;;0.50;99.90;;;;;;5005156;28;20259;-84
2023/03/11 01:20:43;;;;;;;11.53;9.87;;;0.50;99.90;;;;;;5004645;28;20180;-85
2023/03/11 01:23:10;;;;;;;11.23;10.13;;;0.50;99.90;;;;;;4989802;28;20196;-86
2023/03/11 01:25:36;;;;;;;11.23;10.13;;;0.50;99.90;;;;;;5006490;28;20207;-86
2023/03/11 01:28:02;;;;;;;12.53;10.40;;;0.50;99.90;;;;;;5003360;28;20301;-85
2023/03/11 01:30:28;;;;;;;11.43;10.00;;;0.40;99.90;;;;;;5004551;28;20636;-85
2023/03/11 01:32:55;;;;;;;12.07;10.20;;;0.50;99.90;;;;;;5004527;28;20214;-85
2023/03/11 01:35:23;;;;;;;10.47;9.47;;;0.50;99.90;;;;;;5004835;28;20208;-85
2023/03/11 01:37:49;;;;;;;10.23;9.30;;;0.50;99.90;;;;;;4988698;28;20216;-85
2023/03/11 01:40:34;;;;;;;11.97;9.47;;;0.50;99.90;;;;;;4988220;28;20173;-85
2023/03/11 01:43:03;;;;;;;13.07;10.20;;;0.50;99.90;;;;;;4986713;28;20219;-85
2023/03/11 01:46:01;;;;;;;11.07;9.70;;;0.50;99.90;;;;;;5001824;28;20205;-85
2023/03/11 01:48:27;;;;;;;10.93;9.73;;;0.50;99.90;;;;;;4985402;28;20180;-84
2023/03/11 01:50:53;;;;;;;15.13;10.13;;;0.50;99.90;;;;;;4984510;28;20211;-84
2023/03/11 01:53:22;;;;;;;16.80;10.17;;;0.50;99.90;;;;;;5001147;28;20180;-84
2023/03/11 01:55:49;;;;;;;11.27;10.17;;;0.50;99.90;;;;;;5001220;28;20228;-84
2023/03/11 01:58:23;;;;;;;12.50;11.20;;;0.50;99.90;;;;;;4999887;28;20177;-84
2023/03/11 02:00:49;;;;;;;12.53;10.90;;;0.50;99.90;;;;;;5002015;28;20168;-84
2023/03/11 02:03:26;;;;;;;15.60;10.40;;;0.40;99.90;;;;;;5000115;28;20207;-84
2023/03/11 02:05:54;;;;;;;13.57;10.40;;;0.40;99.90;;;;;;4997711;28;20204;-83
2023/03/11 02:08:20;;;;;;;11.30;10.10;;;0.40;99.90;;;;;;4997614;28;20219;-83
2023/03/11 02:10:47;;;;;;;11.23;10.07;;;0.40;99.90;;;;;;4997468;28;20209;-83
2023/03/11 02:13:14;;;;;;;12.90;10.30;;;0.40;99.90;;;;;;4997488;28;20316;-84
2023/03/11 02:15:40;;;;;;;11.00;9.90;;;0.40;99.90;;;;;;4997271;28;20226;-84
2023/03/11 02:18:07;;;;;;;11.63;9.43;;;0.40;99.90;;;;;;4981243;28;20653;-84
2023/03/11 02:20:53;;;;;;;10.33;9.30;;;0.40;99.90;;;;;;4981285;28;20180;-85
2023/03/11 02:23:23;;;;;;;10.60;9.60;;;0.40;99.90;;;;;;4980345;28;20203;-86
2023/03/11 02:26:00;;;;;;;9.97;9.07;;;0.40;99.90;;;;;;4981450;28;20205;-84
2023/03/11 02:28:27;;;;;;;11.27;9.90;;;0.50;99.90;;;;;;4981919;28;20184;-85
2023/03/11 02:30:55;;;;;;;10.47;9.37;;;0.40;99.90;;;;;;4984306;28;20208;-85
2023/03/11 02:33:25;;;;;;;13.27;9.90;;;0.40;99.90;;;;;;4984094;28;20180;-85
2023/03/11 02:35:51;;;;;;;10.50;9.40;;;0.40;99.90;;;;;;4983900;28;20201;-85
2023/03/11 02:38:17;;;;;;;10.30;9.20;;;0.40;99.90;;;;;;5009918;28;20188;-83
2023/03/11 02:40:59;;;;;;;13.87;9.80;;;0.40;99.90;;;;;;4984842;28;20180;-84
2023/03/11 02:43:40;;;;;;;10.13;9.13;;;0.40;99.90;;;;;;4983998;28;20199;-84
2023/03/11 02:46:10;;;;;;;11.27;9.17;;;0.40;99.90;;;;;;4983853;28;20201;-85
2023/03/11 02:48:38;;;;;;;10.57;9.47;;;0.40;99.90;;;;;;4984107;28;20169;-84
2023/03/11 02:51:04;;;;;;;12.50;9.73;;;0.40;99.90;;;;;;4982537;28;20208;-84
2023/03/11 02:53:35;;;;;;;11.90;10.50;;;0.40;99.90;;;;;;4984470;28;20191;-84
2023/03/11 02:56:01;;;;;;;19.83;11.77;;;0.40;99.90;;;;;;5000384;28;20248;-84
2023/03/11 02:58:26;;;;;;;13.23;11.20;;;0.40;99.90;;;;;;4999694;28;20188;-83
2023/03/11 03:00:52;;;;;;;15.10;10.73;;;0.40;99.90;;;;;;4998963;28;20189;-84
2023/03/11 03:03:18;;;;;;;12.60;11.30;;;0.50;99.90;;;;;;4999933;28;20211;-80
2023/03/11 03:05:44;;;;;;;12.23;10.60;;;0.40;99.90;;;;;;4998718;28;20204;-80
2023/03/11 03:08:11;;;;;;;11.30;9.60;;;0.40;99.90;;;;;;4996194;28;20185;-81
2023/03/11 03:10:37;;;;;;;13.17;10.33;;;0.40;99.90;;;;;;4979869;28;20205;-80
2023/03/11 03:13:03;;;;;;;12.20;10.30;;;0.40;99.90;;;;;;4997202;28;20187;-84
2023/03/11 03:15:29;;;;;;;12.20;9.50;;;0.40;99.90;;;;;;4998267;28;20696;-86
2023/03/11 03:17:55;;;;;;;13.07;10.07;;;0.40;99.90;;;;;;5000425;28;20661;-87
2023/03/11 03:20:21;;;;;;;9.47;8.37;;;0.40;99.90;;;;;;4999353;28;20184;-82
2023/03/11 03:22:49;;;;;;;12.30;9.47;;;0.50;99.90;;;;;;4999198;28;20188;-83
2023/03/11 03:25:15;;;;;;;9.93;8.73;;;0.50;99.90;;;;;;4981990;28;20219;-82
2023/03/11 03:27:40;;;;;;;10.53;9.37;;;0.50;99.90;;;;;;4982122;28;20188;-82
2023/03/11 03:30:09;;;;;;;9.70;8.70;;;0.50;99.90;;;;;;4982417;28;20631;-82
2023/03/11 03:32:35;;;;;;;11.33;10.00;;;0.50;99.90;;;;;;4981592;28;20191;-83
2023/03/11 03:35:01;;;;;;;11.90;9.90;;;0.40;99.90;;;;;;4998126;28;20196;-83
2023/03/11 03:37:31;;;;;;;12.57;9.90;;;0.50;99.90;;;;;;4982299;28;20215;-83
2023/03/11 03:39:57;;;;;;;12.87;10.17;;;0.50;99.90;;;;;;4981910;28;20191;-83
2023/03/11 03:42:24;;;;;;;12.17;10.37;;;0.50;99.90;;;;;;4998091;28;20184;-82
2023/03/11 03:44:51;;;;;;;12.77;10.13;;;0.50;99.90;;;;;;4998220;28;20208;-82
2023/03/11 03:47:18;;;;;;;14.63;11.10;;;0.40;99.90;;;;;;4982863;28;20184;-82
2023/03/11 03:49:44;;;;;;;13.00;10.57;;;0.40;99.90;;;;;;4980267;28;20172;-82
2023/03/11 03:52:10;;;;;;;12.63;11.30;;;0.40;99.90;;;;;;4995528;28;20695;-82
2023/03/11 03:54:36;;;;;;;11.87;10.77;;;0.40;99.90;;;;;;4995873;28;20208;-82
2023/03/11 03:57:03;;;;;;;18.20;11.40;;;0.50;99.90;;;;;;4980519;28;20219;-82
2023/03/11 03:59:29;;;;;;;12.27;10.40;;;0.50;99.90;;;;;;4996763;28;20184;-83
2023/03/11 04:01:54;;;;;;;11.90;10.70;;;0.50;99.90;;;;;;4998809;28;20656;-83
2023/03/11 04:04:21;;;;;;;11.43;10.23;;;0.50;99.90;;;;;;4997796;28;20200;-83
2023/03/11 04:06:46;;;;;;;12.03;10.53;;;0.50;99.90;;;;;;4997941;28;20187;-83
2023/03/11 04:09:12;;;;;;;12.63;11.00;;;0.50;99.90;;;;;;4999235;28;20318;-83
2023/03/11 04:11:38;;;;;;;14.00;10.97;;;0.50;99.90;;;;;;4999636;28;20208;-82
2023/03/11 04:14:05;;;;;;;12.57;11.03;;;0.50;99.90;;;;;;5004020;28;20181;-82
2023/03/11 04:16:31;;;;;;;12.47;10.40;;;0.40;99.90;;;;;;4998947;28;20197;-82
2023/03/11 04:18:57;;;;;;;18.37;12.63;;;0.40;99.90;;;;;;4997358;28;20184;-82
2023/03/11 04:21:23;;;;;;;14.77;10.20;;;0.40;99.90;;;;;;4998344;28;20215;-83
2023/03/11 04:23:49;;;;;;;14.33;11.10;;;0.40;99.90;;;;;;4980972;28;20279;-83
2023/03/11 04:26:15;;;;;;;13.30;10.60;;;0.40;99.90;;;;;;4998186;28;20693;-82
2023/03/11 04:28:40;;;;;;;13.87;10.07;;;0.40;99.90;;;;;;4981963;28;20509;-82
2023/03/11 04:31:06;;;;;;;13.83;10.23;;;0.40;99.90;;;;;;4997985;28;20212;-82
2023/03/11 04:33:32;;;;;;;13.40;10.77;;;0.40;99.90;;;;;;4999479;28;20180;-82
2023/03/11 04:35:58;;;;;;;15.10;10.90;;;0.40;99.90;;;;;;4998498;28;20196;-82
2023/03/11 04:38:24;;;;;;;11.60;10.57;;;0.40;99.90;;;;;;4997267;28;20181;-82
2023/03/11 04:40:50;;;;;;;21.60;10.70;;;0.40;99.90;;;;;;4998825;28;20212;-83
2023/03/11 04:43:16;;;;;;;16.50;10.43;;;0.40;99.90;;;;;;4997504;28;20192;-82
2023/03/11 04:45:42;;;;;;;14.57;10.07;;;0.40;99.90;;;;;;4998782;28;20200;-83
2023/03/11 04:48:08;;;;;;;16.50;10.53;;;0.40;99.90;;;;;;5000985;28;20193;-83
2023/03/11 04:50:34;;;;;;;13.57;9.80;;;0.40;99.90;;;;;;5000591;28;20240;-82
2023/03/11 04:53:00;;;;;;;14.73;9.67;;;0.40;99.90;;;;;;5002960;28;20680;-82
2023/03/11 04:55:25;;;;;;;15.93;9.50;;;0.30;99.90;;;;;;4985286;28;20201;-82
2023/03/11 04:57:51;;;;;;;11.90;10.17;;;0.30;99.90;;;;;;5002181;28;20187;-82
2023/03/11 05:00:21;;;;;;;13.03;10.20;;;0.30;99.90;;;;;;4984500;28;20272;-82
2023/03/11 05:02:47;;;;;;;16.83;10.50;;;0.30;99.90;;;;;;5000653;28;20173;-82
2023/03/11 05:05:13;;;;;;;14.17;10.10;;;0.30;99.90;;;;;;5000157;28;20651;-82
2023/03/11 05:07:38;;;;;;;17.10;9.83;;;0.30;99.90;;;;;;5000542;28;20223;-82
2023/03/11 05:10:05;;;;;;;13.67;10.83;;;0.30;99.90;;;;;;4984474;28;20244;-83
2023/03/11 05:12:31;;;;;;;12.07;9.37;;;0.30;99.90;;;;;;5001926;28;20707;-82
2023/03/11 05:14:56;;;;;;;16.07;9.93;;;0.30;99.90;;;;;;4984472;28;20262;-82
2023/03/11 05:17:23;;;;;;;13.77;9.20;;;0.30;99.90;;;;;;4983633;28;20181;-82
2023/03/11 05:19:50;;;;;;;13.57;9.17;;;0.30;99.90;;;;;;4984126;28;20184;-82
2023/03/11 05:22:15;;;;;;;13.27;9.67;;;0.30;99.90;;;;;;4984756;28;20716;-82
2023/03/11 05:24:41;;;;;;;11.67;10.47;;;0.30;99.90;;;;;;4983442;28;20216;-82
2023/03/11 05:27:07;;;;;;;14.03;10.37;;;0.30;99.90;;;;;;4984489;28;20192;-82
2023/03/11 05:29:32;;;;;;;12.90;9.57;;;0.20;99.90;;;;;;4999725;28;20185;-82
2023/03/11 05:31:58;;;;;;;11.83;9.70;;;0.20;99.90;;;;;;5000836;28;20581;-82
2023/03/11 05:34:24;;;;;;;10.97;9.53;;;0.20;99.90;;;;;;4983277;28;20622;-82
2023/03/11 05:36:50;;;;;;;9.83;8.93;;;0.20;99.90;;;;;;4983576;28;20180;-82
2023/03/11 05:39:15;;;;;;;11.37;8.47;;;0.20;99.90;;;;;;5001924;28;20225;-82
2023/03/11 05:41:41;;;;;;;12.40;9.77;;;0.20;99.90;;;;;;4981900;28;20227;-81
2023/03/11 05:44:07;;;;;;;10.07;8.77;;;0.20;99.90;;;;;;4998923;28;20238;-81
2023/03/11 05:46:33;;;;;;;20.63;8.43;;;0.20;99.90;;;;;;4998565;28;20204;-82
2023/03/11 05:48:59;;;;;;;11.17;8.83;;;0.20;99.90;;;;;;4981501;28;20276;-82
2023/03/11 05:51:25;;;;;;;9.67;8.87;;;0.20;99.90;;;;;;4983115;28;20204;-82
2023/03/11 05:53:51;;;;;;;13.13;8.90;;;0.20;99.90;;;;;;4987543;28;20634;-82
2023/03/11 05:56:19;;;;;;;13.03;8.30;;;0.20;99.90;;;;;;4985382;28;20200;-82
2023/03/11 05:58:45;;;;;;;10.93;8.70;;;0.20;99.90;;;;;;5000711;28;20652;-82
2023/03/11 06:01:14;;;;;;;9.87;8.37;;;0.30;99.90;;;;;;4983319;28;20185;-81
2023/03/11 06:03:40;;;;;;;10.07;8.63;;;0.20;99.90;;;;;;4981784;28;20202;-81
2023/03/11 06:06:09;;;;;;;15.47;7.80;;;0.30;99.90;;;;;;4981824;28;20280;-81
2023/03/11 06:08:35;;;;;;;9.53;8.33;;;0.30;99.90;;;;;;4984040;28;20180;-81
2023/03/11 06:11:09;;;;;;;9.47;8.23;;;0.30;99.90;;;;;;4999671;28;20324;-81
2023/03/11 06:13:36;;;;;;;11.70;7.80;;;0.30;99.90;;;;;;4987361;28;20240;-81
2023/03/11 06:16:03;;;;;;;10.27;7.80;;;0.30;99.90;;;;;;5000626;28;20192;-81
2023/03/11 06:18:28;;;;;;;15.20;8.10;;;0.30;99.90;;;;;;4982484;28;20184;-81
2023/03/11 06:20:58;;;;;;;9.87;8.27;;;0.30;99.90;;;;;;4982535;28;20231;-81
2023/03/11 06:23:24;;;;;;;8.90;8.07;;;0.30;99.90;;;;;;4982463;28;20235;-81
2023/03/11 06:26:02;;;;;;;9.93;7.60;;;0.30;99.90;;;;;;4982618;28;20577;-82
2023/03/11 06:28:28;;;;;;;13.23;8.20;;;0.30;99.90;;;;;;4982018;28;20231;-82
2023/03/11 06:31:00;;;;;;;8.57;7.77;;;0.30;99.90;;;;;;4982358;28;20694;-82
2023/03/11 06:33:26;;;;;;;7.93;7.23;;;0.30;99.90;;;;;;4982362;28;20181;-82
2023/03/11 06:35:59;;;;;;;9.10;7.87;;;0.30;99.90;;;;;;4982541;28;20200;-82
2023/03/11 06:38:25;;;;;;;10.23;8.03;;;0.30;99.90;;;;;;5000151;28;20176;-82
2023/03/11 06:40:51;;;;;;;7.93;7.23;;;0.30;99.90;;;;;;4981993;28;20187;-81
2023/03/11 06:43:17;;;;;;;9.80;8.07;;;0.30;99.90;;;;;;4982041;28;20275;-81
2023/03/11 06:45:43;;;;;;;9.13;7.57;;;0.30;99.90;;;;;;4981746;28;20242;-82
2023/03/11 06:48:09;;;;;;;11.00;7.87;;;0.30;99.90;;;;;;4981916;28;20753;-81
2023/03/11 06:50:34;;;;;;;10.03;8.33;;;0.20;99.90;;;;;;4998903;28;20178;-81
2023/03/11 06:53:01;;;;;;;10.67;8.47;;;0.20;99.90;;;;;;4981735;28;20180;-81
2023/03/11 06:55:27;;;;;;;9.67;8.67;;;0.30;99.90;;;;;;4982151;28;20201;-81
2023/03/11 06:57:53;;;;;;;13.20;8.90;;;0.30;99.90;;;;;;4998922;28;20211;-81
2023/03/11 07:00:19;;;;;;;11.10;8.80;;;0.30;99.90;;;;;;4982435;28;20181;-81
2023/03/11 07:02:44;;;;;;;14.77;8.20;;;0.40;99.90;;;;;;4982399;28;20231;-81
2023/03/11 07:05:11;;;;;;;10.87;9.23;;;0.50;99.90;;;;;;4978480;28;20196;-82
2023/03/11 07:07:37;;;;;;;8.90;8.10;;;0.50;99.90;;;;;;4979479;28;20180;-82
2023/03/11 07:10:03;;;;;;;12.23;8.60;;;0.40;99.90;;;;;;4979152;28;20187;-82
2023/03/11 07:12:29;;;;;;;13.40;8.33;;;0.40;99.90;;;;;;4979213;28;20243;-81
2023/03/11 07:14:58;;;;;;;13.77;8.77;;;0.40;99.90;;;;;;4979365;28;20205;-82
2023/03/11 07:17:25;;;;;;;14.70;8.07;;;0.40;99.90;;;;;;4978707;28;20188;-81
2023/03/11 07:19:51;;;;;;;10.20;9.00;;;0.30;99.90;;;;;;4979139;28;20181;-81
2023/03/11 07:22:17;;;;;;;10.13;9.13;;;0.30;99.90;;;;;;4996338;28;20183;-81
2023/03/11 07:24:47;;;;;;;13.20;9.00;;;0.30;99.90;;;;;;4996292;28;20626;-82
2023/03/11 07:27:13;;;;;;;14.07;9.33;;;0.30;99.90;;;;;;4979006;28;20185;-81
2023/03/11 07:29:39;;;;;;;12.33;8.87;;;0.40;99.90;;;;;;4978727;28;20184;-81
2023/03/11 07:32:07;;;;;;;12.10;9.17;;;0.50;99.90;;;;;;4979010;28;20200;-81
2023/03/11 07:34:33;;;;;;;10.50;8.27;;;0.70;99.90;;;;;;4996385;28;20584;-82
2023/03/11 07:36:59;;;;;;;11.67;8.57;;;0.80;99.90;;;;;;4978762;28;20181;-82
2023/03/11 07:39:25;;;;;;;15.30;9.50;;;0.90;99.90;;;;;;4996390;28;20168;-82
2023/03/11 07:41:51;;;;;;;8.80;7.80;;;1.00;99.90;;;;;;4978940;28;20181;-82
2023/03/11 07:44:16;;;;;;;7.93;7.30;;;1.10;99.90;;;;;;4996529;28;20183;-82
2023/03/11 07:46:42;;;;;;;11.73;7.90;;;1.10;99.90;;;;;;4979441;28;20362;-81
2023/03/11 07:49:08;;;;;;;9.83;7.47;;;1.10;99.90;;;;;;4979375;28;20207;-81
2023/03/11 07:51:36;;;;;;;8.07;7.20;;;1.20;99.90;;;;;;4978655;28;20227;-81
2023/03/11 07:54:03;;;;;;;8.80;7.80;;;1.40;99.90;;;;;;4996390;28;20177;-81
2023/03/11 07:56:31;;;;;;;8.40;7.53;;;1.40;99.90;;;;;;4979909;28;20696;-81
2023/03/11 07:58:58;;;;;;;8.27;7.47;;;1.40;99.90;;;;;;4980635;28;20176;-81
2023/03/11 08:01:26;;;;;;;9.37;7.57;;;1.40;99.90;;;;;;4997777;28;20168;-81
2023/03/11 08:03:57;;;;;;;12.53;7.20;;;1.50;99.90;;;;;;4979472;28;20184;-81
2023/03/11 08:06:33;;;;;;;8.77;7.80;;;1.50;99.90;;;;;;4979771;28;20208;-81
2023/03/11 08:09:02;;;;;;;8.13;7.07;;;1.50;99.90;;;;;;4979656;28;20172;-81
2023/03/11 08:11:29;;;;;;;9.80;8.07;;;1.60;99.90;;;;;;4997016;28;20286;-81
2023/03/11 08:13:56;;;;;;;11.90;7.47;;;1.70;99.90;;;;;;4979711;28;20657;-81
2023/03/11 08:16:23;;;;;;;9.03;7.70;;;1.80;99.90;;;;;;4997293;28;20188;-81
2023/03/11 08:18:50;;;;;;;10.87;7.53;;;1.80;99.90;;;;;;4980075;28;20653;-80
2023/03/11 08:21:21;;;;;;;9.83;7.10;;;1.90;99.90;;;;;;4982227;28;20181;-81
2023/03/11 08:23:48;;;;;;;8.07;6.80;;;1.80;99.90;;;;;;4983819;28;20203;-82
2023/03/11 08:26:17;;;;;;;9.37;7.17;;;1.80;99.90;;;;;;5004066;28;20192;-83
2023/03/11 08:28:43;;;;;;;8.53;6.80;;;1.90;99.90;;;;;;4985828;28;20188;-83
2023/03/11 08:31:29;;;;;;;9.40;7.43;;;2.00;99.90;;;;;;4986030;28;20204;-83
2023/03/11 08:34:01;;;;;;;15.87;7.10;;;2.00;99.90;;;;;;4987446;28;20169;-84
2023/03/11 08:36:27;;;;;;;14.93;8.07;;;2.10;99.90;;;;;;5003514;28;20192;-83
2023/03/11 08:38:53;;;;;;;7.80;7.10;;;2.10;99.90;;;;;;4986398;28;20212;-83
2023/03/11 08:41:19;;;;;;;6.97;6.37;;;2.20;99.90;;;;;;4986710;28;20267;-83
2023/03/11 08:43:45;;;;;;;7.77;7.17;;;2.10;99.90;;;;;;4985974;28;20271;-83
2023/03/11 08:46:28;;;;;;;6.90;6.30;;;2.20;99.90;;;;;;4986694;28;20208;-84
2023/03/11 08:48:54;;;;;;;11.27;6.63;;;2.30;99.90;;;;;;5003770;28;20169;-84
2023/03/11 08:51:21;;;;;;;11.93;7.60;;;2.30;99.90;;;;;;4992557;28;20200;-83
2023/03/11 08:53:47;;;;;;;7.60;6.70;;;2.40;99.90;;;;;;5005819;28;20181;-83
2023/03/11 08:56:13;;;;;;;7.53;6.60;;;2.40;99.90;;;;;;5011591;28;20224;-83
2023/03/11 08:58:39;;;;;;;11.10;6.77;;;2.50;99.90;;;;;;4996900;28;20275;-83
2023/03/11 09:01:07;;;;;;;9.07;7.13;;;2.50;99.90;;;;;;5007585;28;20180;-83
2023/03/11 09:03:34;;;;;;;7.77;6.53;;;2.60;99.90;;;;;;4983681;28;20212;-83
2023/03/11 09:06:02;;;;;;;10.30;6.47;;;2.70;99.90;;;;;;4999714;28;20200;-83
2023/03/11 09:08:28;;;;;;;7.23;6.53;;;2.70;99.90;;;;;;4986211;28;20185;-82
2023/03/11 09:10:54;;;;;;;8.53;6.80;;;2.80;99.90;;;;;;4985421;28;20200;-83
2023/03/11 09:13:21;;;;;;;10.53;6.93;;;2.90;99.90;;;;;;5003498;28;20183;-83
2023/03/11 09:15:48;;;;;;;10.73;6.67;;;2.90;99.90;;;;;;4986027;28;20203;-83
2023/03/11 09:18:14;;;;;;;7.30;6.50;;;3.10;99.90;;;;;;4983461;28;20176;-83
2023/03/11 09:20:41;;;;;;;7.50;6.80;;;3.30;99.90;;;;;;4981827;28;20177;-83
2023/03/11 09:23:08;;;;;;;12.47;7.03;;;3.30;99.90;;;;;;4981775;28;20195;-83
2023/03/11 09:25:33;;;;;;;6.83;6.20;;;3.20;99.90;;;;;;4990682;28;20223;-83
2023/03/11 09:27:59;;;;;;;6.60;6.03;;;3.30;99.90;;;;;;4996695;28;20177;-85
2023/03/11 09:30:25;;;;;;;8.10;6.80;;;3.40;99.90;;;;;;4992517;28;20185;-84
2023/03/11 09:32:50;;;;;;;9.53;6.27;;;3.40;99.90;;;;;;4988200;28;20633;-84
2023/03/11 09:35:16;;;;;;;9.47;6.23;;;3.40;99.90;;;;;;5003088;28;20250;-83
2023/03/11 09:37:42;;;;;;;7.50;5.77;;;3.10;99.90;;;;;;5005087;28;20176;-83
2023/03/11 09:40:15;;;;;;;7.20;5.60;;;2.90;99.90;;;;;;5003103;28;20545;-83
2023/03/11 09:42:54;;;;;;;6.50;5.90;;;2.70;99.90;;;;;;5001694;28;20228;-83
2023/03/11 09:45:29;;;;;;;6.37;5.87;;;2.60;99.90;;;;;;4984495;28;20203;-83
2023/03/11 09:48:05;;;;;;;14.40;6.17;;;2.60;99.90;;;;;;5008205;28;20656;-83
2023/03/11 09:50:46;;;;;;;6.40;5.80;;;2.60;99.90;;;;;;5002166;28;20183;-83
2023/03/11 09:53:30;;;;;;;6.70;6.07;;;2.70;99.90;;;;;;5002441;28;20626;-83
2023/03/11 09:56:00;;;;;;;7.70;6.07;;;3.20;99.90;;;;;;5000382;28;20281;-83
2023/03/11 09:58:49;;;;;;;7.20;5.60;;;3.60;99.90;;;;;;4983788;28;20195;-84
2023/03/11 10:01:36;;;;;;;8.40;6.00;;;3.70;99.90;;;;;;4982296;28;20175;-84
2023/03/11 10:04:32;;;;;;;7.23;5.80;;;3.50;99.90;;;;;;4982075;28;20165;-84
2023/03/11 10:07:02;;;;;;;6.43;5.80;;;3.50;99.90;;;;;;4982378;28;20199;-84
2023/03/11 10:09:46;;;;;;;6.47;5.87;;;3.60;99.90;;;;;;4982540;28;20177;-84
2023/03/11 10:12:24;;;;;;;6.23;5.73;;;3.90;99.90;;;;;;5001967;28;20222;-84
2023/03/11 10:15:20;;;;;;;6.33;5.70;;;4.10;99.90;;;;;;5000486;28;20200;-83
2023/03/11 10:18:13;;;;;;;6.87;5.53;;;4.00;99.90;;;;;;4983866;28;20172;-84
2023/03/11 10:20:53;;;;;;;6.20;5.60;;;4.10;99.90;;;;;;4982260;28;20176;-83
2023/03/11 10:23:44;;;;;;;5.80;5.33;;;4.10;99.90;;;;;;4996827;28;20218;-83
2023/03/11 10:26:28;;;;;;;6.77;6.07;;;3.90;99.90;;;;;;4998356;28;20627;-84
2023/03/11 10:29:09;;;;;;;6.60;5.87;;;3.70;99.90;;;;;;5001135;28;20176;-84
2023/03/11 10:31:38;;;;;;;9.40;5.93;;;3.80;99.90;;;;;;4985078;28;20614;-85
2023/03/11 10:34:14;;;;;;;5.60;5.10;;;3.90;99.90;;;;;;5001357;28;20187;-83
2023/03/11 10:36:59;;;;;;;9.17;6.33;;;4.20;99.90;;;;;;5000186;28;20263;-84
2023/03/11 10:39:26;;;;;;;8.40;5.87;;;4.50;99.90;;;;;;4998960;28;20176;-84
2023/03/11 10:41:56;;;;;;;6.30;5.80;;;4.90;99.90;;;;;;4982415;28;20188;-84
2023/03/11 10:44:31;;;;;;;6.83;5.57;;;5.10;99.90;;;;;;4981784;28;20164;-83
2023/03/11 10:46:57;;;;;;;8.03;5.80;;;5.00;99.90;;;;;;4982988;28;20172;-84
2023/03/11 10:49:22;;;;;;;6.10;5.50;;;4.90;99.90;;;;;;4982563;28;20558;-84
2023/03/11 10:51:51;;;;;;;8.30;5.60;;;4.90;99.90;;;;;;4982934;28;20227;-84
2023/03/11 10:54:30;;;;;;;7.63;5.40;;;4.70;99.90;;;;;;4983111;28;20222;-83
2023/03/11 10:57:30;;;;;;;5.67;5.10;;;4.60;99.90;;;;;;4998710;28;20244;-84
2023/03/11 10:59:58;;;;;;;5.47;5.17;;;4.60;99.90;;;;;;4973917;28;20185;-84
2023/03/11 11:02:36;;;;;;;8.57;4.90;;;5.00;99.90;;;;;;4983581;28;20191;-84
2023/03/11 11:05:25;;;;;;;7.07;5.10;;;5.40;99.90;;;;;;4983290;28;20205;-83
2023/03/11 11:08:21;;;;;;;6.20;5.60;;;5.80;99.90;;;;;;4982480;28;20180;-84
2023/03/11 11:10:51;;;;;;;5.67;5.10;;;5.40;99.90;;;;;;4981579;28;20703;-84
2023/03/11 11:13:20;;;;;;;5.50;5.20;;;4.90;99.90;;;;;;4997561;28;20183;-85
2023/03/11 11:16:19;;;;;;;5.80;5.33;;;4.40;99.90;;;;;;4981824;28;20196;-84
2023/03/11 11:18:49;;;;;;;10.90;5.60;;;4.10;99.90;;;;;;5001331;28;20176;-84
2023/03/11 11:21:48;;;;;;;5.63;5.20;;;3.90;99.90;;;;;;5001486;28;20247;-84
2023/03/11 11:24:19;;;;;;;9.53;5.37;;;3.80;99.90;;;;;;4981865;28;20200;-84
2023/03/11 11:27:03;;;;;;;5.60;5.10;;;3.90;99.90;;;;;;4983434;28;20204;-85
2023/03/11 11:29:29;;;;;;;6.00;5.40;;;4.10;99.90;;;;;;5005394;28;20184;-84
2023/03/11 11:32:18;;;;;;;5.93;5.20;;;4.50;99.90;;;;;;4982187;28;20684;-85
2023/03/11 11:34:59;;;;;;;5.97;4.80;;;5.00;99.90;;;;;;4999489;28;20196;-81
2023/03/11 11:37:30;;;;;;;5.77;5.27;;;5.50;99.90;;;;;;4985858;28;20267;-83
2023/03/11 11:40:24;;;;;;;6.23;4.80;;;5.50;99.90;;;;;;4983699;28;20543;-82
2023/03/11 11:42:55;;;;;;;4.70;4.40;;;5.50;99.90;;;;;;4979027;28;20188;-82
2023/03/11 11:45:21;;;;;;;5.23;4.83;;;5.40;99.90;;;;;;4982782;28;20202;-81
2023/03/11 11:47:53;;;;;;;5.43;4.90;;;6.00;99.90;;;;;;4999984;28;20177;-82
2023/03/11 11:50:35;;;;;;;5.23;4.73;;;5.80;99.90;;;;;;5001989;28;20164;-81
2023/03/11 11:53:09;;;;;;;5.27;4.90;;;5.80;99.90;;;;;;4985735;28;20176;-81
2023/03/11 11:55:40;;;;;;;5.30;4.90;;;5.50;99.90;;;;;;5001153;28;20202;-83
2023/03/11 11:58:13;;;;;;;5.10;4.70;;;5.50;99.90;;;;;;4988575;28;20188;-82
2023/03/11 12:00:57;;;;;;;5.67;5.00;;;5.50;99.90;;;;;;4987070;28;20172;-82
2023/03/11 12:04:01;;;;;;;5.40;5.03;;;5.40;99.90;;;;;;5008379;28;20183;-82
2023/03/11 12:06:45;;;;;;;9.73;5.63;;;5.40;99.90;;;;;;4985997;28;20331;-83
2023/03/11 12:09:28;;;;;;;6.50;5.40;;;5.40;99.90;;;;;;5007454;28;20172;-82
2023/03/11 12:11:57;;;;;;;5.00;4.63;;;5.60;99.90;;;;;;4991159;28;20188;-82
2023/03/11 12:14:50;;;;;;;7.67;5.07;;;5.80;99.90;;;;;;5008817;28;20354;-82
2023/03/11 12:17:18;;;;;;;5.73;5.13;;;5.80;99.90;;;;;;4991705;28;20181;-83
2023/03/11 12:19:51;;;;;;;5.40;5.10;;;5.70;99.90;;;;;;4988647;28;20188;-83
2023/03/11 12:22:38;;;;;;;7.17;4.80;;;5.40;99.90;;;;;;5003068;28;20211;-84
2023/03/11 12:25:32;;;;;;;5.73;4.87;;;5.60;99.90;;;;;;5006205;28;20211;-83
2023/03/11 12:28:03;;;;;;;5.10;4.60;;;5.90;99.90;;;;;;5010678;28;20198;-83
2023/03/11 12:30:36;;;;;;;6.70;4.80;;;6.00;99.90;;;;;;5009216;28;20645;-83
2023/03/11 12:33:08;;;;;;;5.87;5.20;;;6.00;99.90;;;;;;4994030;28;20219;-83
2023/03/11 12:35:35;;;;;;;5.10;4.70;;;6.40;99.90;;;;;;4988822;28;20212;-83
2023/03/11 12:38:38;;;;;;;8.80;5.33;;;6.10;99.90;;;;;;4988682;28;20180;-83
2023/03/11 12:41:26;;;;;;;10.13;4.90;;;5.90;99.90;;;;;;4948973;29;20185;-83
2023/03/11 12:43:51;;;;;;;6.07;4.80;;;6.00;99.90;;;;;;5004121;28;20193;-83
2023/03/11 12:46:18;;;;;;;6.67;5.07;;;5.60;99.90;;;;;;4999979;28;20723;-82
2023/03/11 12:49:10;;;;;;;5.57;5.07;;;5.30;99.90;;;;;;4984720;28;20211;-83
2023/03/11 12:51:38;;;;;;;6.03;5.47;;;5.10;99.90;;;;;;4986688;28;20295;-83
2023/03/11 12:54:27;;;;;;;5.13;4.70;;;5.10;99.90;;;;;;4985959;28;20184;-82
2023/03/11 12:57:19;;;;;;;7.40;5.47;;;5.20;99.90;;;;;;5001024;28;20165;-82
2023/03/11 13:00:23;;;;;;;6.73;5.33;;;5.60;99.90;;;;;;5007753;28;20200;-82
2023/03/11 13:02:51;;;;;;;5.23;4.87;;;6.00;99.90;;;;;;5011229;28;20188;-83
2023/03/11 13:05:31;;;;;;;5.13;4.70;;;6.10;99.90;;;;;;5009042;28;20248;-83